Time;durP1;ratioP1;P1;durP2;ratioP2;P2;SDS_P1;SDS_P2;PMS_P1;PMS_P2;Temp;Humidity;BMP_temperature;BMP_pressure;BME280_temperature;BME280_humidity;BME280_pressure;Samples;Min_cycle;Max_cycle;Signal;HPM_P1;HPM_P2
2023/08/29 00:00:35;;;;;;;7.03;4.60;;;24.10;99.90;;;;;;5075007;28;20178;-75
2023/08/29 00:03:04;;;;;;;11.13;4.82;;;24.00;99.90;;;;;;5075972;28;20056;-73
2023/08/29 00:05:30;;;;;;;5.32;4.80;;;24.00;99.90;;;;;;5076222;28;20044;-74
2023/08/29 00:07:56;;;;;;;9.38;4.20;;;24.00;99.90;;;;;;5074944;28;20060;-74
2023/08/29 00:10:22;;;;;;;6.53;4.20;;;23.90;99.90;;;;;;5072650;28;20471;-74
2023/08/29 00:12:47;;;;;;;5.38;4.57;;;23.80;99.90;;;;;;5045308;28;20051;-74
2023/08/29 00:15:13;;;;;;;5.10;4.13;;;23.80;99.90;;;;;;5072863;28;20021;-74
2023/08/29 00:17:39;;;;;;;5.28;3.65;;;23.80;99.90;;;;;;5071566;28;20959;-74
2023/08/29 00:20:05;;;;;;;8.50;3.88;;;23.70;99.90;;;;;;5056569;28;20047;-75
2023/08/29 00:22:31;;;;;;;10.65;3.85;;;23.70;99.90;;;;;;5068021;28;20040;-75
2023/08/29 00:24:58;;;;;;;4.80;3.65;;;23.70;99.90;;;;;;5069507;28;20297;-74
2023/08/29 00:27:23;;;;;;;4.97;3.83;;;23.60;99.90;;;;;;5071071;28;20125;-74
2023/08/29 00:29:49;;;;;;;3.92;3.50;;;23.50;99.90;;;;;;5069321;28;21354;-74
2023/08/29 00:32:15;;;;;;;5.50;3.90;;;23.50;99.90;;;;;;5068769;28;20032;-74
2023/08/29 00:34:40;;;;;;;5.85;3.70;;;23.40;99.90;;;;;;5067696;28;20051;-74
2023/08/29 00:37:06;;;;;;;5.47;4.32;;;23.50;99.90;;;;;;5055184;28;20040;-74
2023/08/29 00:39:32;;;;;;;4.38;3.53;;;23.40;99.90;;;;;;5070922;28;20122;-74
2023/08/29 00:41:57;;;;;;;5.55;3.67;;;23.40;99.90;;;;;;5064111;28;20060;-74
2023/08/29 00:44:23;;;;;;;4.85;3.65;;;23.40;99.90;;;;;;5060529;28;20546;-74
2023/08/29 00:46:50;;;;;;;4.22;3.50;;;23.40;99.90;;;;;;5066037;28;20024;-74
2023/08/29 00:49:21;;;;;;;4.68;3.63;;;23.30;99.90;;;;;;5070755;28;20082;-73
2023/08/29 00:51:48;;;;;;;11.25;4.57;;;23.30;99.90;;;;;;5063936;28;20110;-74
2023/08/29 00:54:15;;;;;;;5.40;4.20;;;23.20;99.90;;;;;;5068385;28;20066;-75
2023/08/29 00:56:42;;;;;;;5.75;4.28;;;23.20;99.90;;;;;;5069228;28;20040;-74
2023/08/29 00:59:08;;;;;;;4.07;3.58;;;23.20;99.90;;;;;;5071886;28;20047;-75
2023/08/29 01:01:35;;;;;;;6.47;3.97;;;23.10;99.90;;;;;;5066479;28;20389;-75
2023/08/29 01:04:02;;;;;;;5.50;3.67;;;23.10;99.90;;;;;;5069888;28;20043;-80
2023/08/29 01:06:30;;;;;;;3.88;3.45;;;23.10;99.90;;;;;;5069928;28;20032;-74
2023/08/29 01:08:57;;;;;;;7.35;4.50;;;23.00;99.90;;;;;;5067051;28;20047;-73
2023/08/29 01:11:35;;;;;;;5.25;4.00;;;23.00;99.90;;;;;;5063951;28;20044;-74
2023/08/29 01:14:30;;;;;;;5.43;3.75;;;23.00;99.90;;;;;;5072444;28;20028;-74
2023/08/29 01:17:06;;;;;;;6.75;3.78;;;22.90;99.90;;;;;;5066916;28;20164;-74
2023/08/29 01:19:33;;;;;;;6.28;3.60;;;22.80;99.90;;;;;;5071851;28;20044;-75
2023/08/29 01:22:17;;;;;;;5.85;4.10;;;22.70;99.90;;;;;;5068930;28;20125;-77
2023/08/29 01:24:53;;;;;;;4.75;3.95;;;22.70;99.90;;;;;;5075642;28;20040;-78
2023/08/29 01:27:20;;;;;;;5.90;4.13;;;22.50;99.90;;;;;;5076599;28;20067;-78
2023/08/29 01:29:46;;;;;;;6.53;4.07;;;22.40;99.90;;;;;;5077322;28;20052;-79
2023/08/29 01:32:13;;;;;;;6.60;3.72;;;22.40;99.90;;;;;;5067972;28;20035;-78
2023/08/29 01:34:42;;;;;;;8.77;4.10;;;22.30;99.90;;;;;;5074524;28;20110;-78
2023/08/29 01:37:07;;;;;;;6.90;4.10;;;22.30;99.90;;;;;;5072743;28;20063;-78
2023/08/29 01:39:33;;;;;;;7.90;3.80;;;22.30;99.90;;;;;;5072598;28;20071;-78
2023/08/29 01:41:59;;;;;;;4.50;4.10;;;22.30;99.90;;;;;;5066341;28;20044;-75
2023/08/29 01:44:24;;;;;;;7.18;4.50;;;22.40;99.90;;;;;;5070891;28;20036;-73
2023/08/29 01:46:50;;;;;;;5.68;4.38;;;22.30;99.90;;;;;;5069075;28;20052;-74
2023/08/29 01:49:16;;;;;;;6.45;4.82;;;22.30;99.90;;;;;;5073599;28;20098;-74
2023/08/29 01:51:41;;;;;;;5.63;3.90;;;22.30;99.90;;;;;;5072608;28;20103;-75
2023/08/29 01:54:07;;;;;;;6.60;4.22;;;22.30;99.90;;;;;;5073382;28;20040;-74
2023/08/29 01:56:34;;;;;;;5.30;4.32;;;22.20;99.90;;;;;;5070495;28;20040;-74
2023/08/29 01:59:00;;;;;;;7.15;4.40;;;22.30;99.90;;;;;;5067942;28;20063;-74
2023/08/29 02:01:29;;;;;;;9.48;4.50;;;22.20;99.90;;;;;;5072396;28;20048;-80
2023/08/29 02:03:55;;;;;;;4.95;4.30;;;22.20;99.90;;;;;;5079745;28;20063;-81
2023/08/29 02:06:20;;;;;;;5.50;4.95;;;22.20;99.90;;;;;;5075670;28;20158;-79
2023/08/29 02:08:46;;;;;;;6.40;4.15;;;22.20;99.90;;;;;;5074382;28;20813;-76
2023/08/29 02:11:12;;;;;;;6.47;4.47;;;22.20;99.90;;;;;;5070133;28;20040;-73
2023/08/29 02:13:38;;;;;;;5.05;4.57;;;22.20;99.90;;;;;;5070310;28;20051;-74
2023/08/29 02:16:03;;;;;;;6.78;4.22;;;22.30;99.90;;;;;;5072007;28;20081;-74
2023/08/29 02:18:29;;;;;;;7.32;4.57;;;22.30;99.90;;;;;;5064434;28;20052;-74
2023/08/29 02:20:55;;;;;;;7.47;4.68;;;22.20;99.90;;;;;;5065927;28;20036;-74
2023/08/29 02:23:21;;;;;;;5.45;4.60;;;22.20;99.90;;;;;;5061505;28;20043;-74
2023/08/29 02:25:46;;;;;;;5.05;4.55;;;22.10;99.90;;;;;;5065666;28;20559;-76
2023/08/29 02:28:13;;;;;;;5.32;4.35;;;22.10;99.90;;;;;;5063853;28;20701;-76
2023/08/29 02:30:39;;;;;;;6.68;4.25;;;22.10;99.90;;;;;;5060508;28;20123;-75
2023/08/29 02:33:04;;;;;;;9.55;5.05;;;22.10;99.90;;;;;;5066806;28;20036;-73
2023/08/29 02:35:30;;;;;;;4.88;4.15;;;22.10;99.90;;;;;;5067643;28;20120;-72
2023/08/29 02:37:56;;;;;;;5.13;4.57;;;22.10;99.90;;;;;;5066297;28;20036;-72
2023/08/29 02:40:22;;;;;;;5.38;4.68;;;22.10;99.90;;;;;;5064790;28;20044;-72
2023/08/29 02:42:47;;;;;;;5.03;4.22;;;22.10;99.90;;;;;;5068636;28;20127;-72
2023/08/29 02:45:13;;;;;;;4.82;4.32;;;22.00;99.90;;;;;;5067999;28;20568;-72
2023/08/29 02:47:39;;;;;;;7.35;4.47;;;21.90;99.90;;;;;;5063911;28;20105;-72
2023/08/29 02:50:05;;;;;;;7.40;4.40;;;21.90;99.90;;;;;;5052044;28;20035;-72
2023/08/29 02:52:30;;;;;;;5.72;3.83;;;22.00;99.90;;;;;;5066039;28;20032;-72
2023/08/29 02:54:56;;;;;;;7.50;5.00;;;22.00;99.90;;;;;;5069200;28;20042;-72
2023/08/29 02:57:22;;;;;;;4.95;4.50;;;21.90;99.90;;;;;;5065911;28;20040;-72
2023/08/29 02:59:47;;;;;;;5.45;4.32;;;21.90;99.90;;;;;;5045501;28;20041;-72
2023/08/29 03:02:13;;;;;;;6.75;4.60;;;21.90;99.90;;;;;;5065070;28;20048;-73
2023/08/29 03:04:38;;;;;;;7.03;5.07;;;21.90;99.90;;;;;;5061998;28;20029;-73
2023/08/29 03:07:05;;;;;;;5.55;4.60;;;21.80;99.90;;;;;;5060067;28;20099;-72
2023/08/29 03:09:31;;;;;;;6.38;5.45;;;21.70;99.90;;;;;;5062611;28;20115;-73
2023/08/29 03:11:56;;;;;;;5.57;4.90;;;21.70;99.90;;;;;;5066958;28;20048;-75
2023/08/29 03:14:22;;;;;;;6.97;5.10;;;21.70;99.90;;;;;;5068274;28;20704;-75
2023/08/29 03:16:48;;;;;;;5.55;4.50;;;21.60;99.90;;;;;;5071136;28;20036;-75
2023/08/29 03:19:14;;;;;;;4.60;4.20;;;21.70;99.90;;;;;;5069717;28;20104;-75
2023/08/29 03:21:40;;;;;;;6.07;4.72;;;21.70;99.90;;;;;;5064305;28;20028;-75
2023/08/29 03:24:07;;;;;;;4.97;4.53;;;21.50;99.90;;;;;;5076328;28;20082;-74
2023/08/29 03:26:32;;;;;;;5.93;4.85;;;21.50;99.90;;;;;;5066410;28;20067;-75
2023/08/29 03:28:58;;;;;;;5.47;4.20;;;21.40;99.90;;;;;;5072246;28;20845;-75
2023/08/29 03:31:24;;;;;;;8.02;4.53;;;21.50;99.90;;;;;;5072051;28;20040;-71
2023/08/29 03:33:49;;;;;;;5.93;4.57;;;21.50;99.90;;;;;;5054330;28;20051;-72
2023/08/29 03:36:15;;;;;;;5.25;4.75;;;21.50;99.90;;;;;;5066783;28;20036;-73
2023/08/29 03:38:43;;;;;;;5.22;4.20;;;21.60;99.90;;;;;;5065259;28;20093;-72
2023/08/29 03:41:09;;;;;;;9.57;4.55;;;21.50;99.90;;;;;;5071198;28;20028;-72
2023/08/29 03:43:35;;;;;;;5.93;4.50;;;21.50;99.90;;;;;;5075736;28;20062;-72
2023/08/29 03:46:11;;;;;;;6.30;4.65;;;21.50;99.90;;;;;;5071173;28;20071;-72
2023/08/29 03:48:37;;;;;;;7.32;5.00;;;21.50;99.90;;;;;;5070188;28;20123;-72
2023/08/29 03:51:08;;;;;;;7.68;5.05;;;21.60;99.90;;;;;;5069061;28;20511;-72
2023/08/29 03:53:36;;;;;;;5.53;4.97;;;21.70;99.90;;;;;;5071156;28;20125;-72
2023/08/29 03:56:06;;;;;;;6.00;4.90;;;21.60;99.90;;;;;;5066975;28;20040;-72
2023/08/29 03:58:32;;;;;;;8.77;4.95;;;21.60;99.90;;;;;;5069353;28;20041;-72
2023/08/29 04:00:58;;;;;;;6.07;4.53;;;21.70;99.90;;;;;;5068160;28;20444;-72
2023/08/29 04:03:24;;;;;;;5.78;4.30;;;21.60;99.90;;;;;;5055921;28;20044;-72
2023/08/29 04:05:50;;;;;;;5.82;5.22;;;21.50;99.90;;;;;;5074711;28;20063;-73
2023/08/29 04:08:15;;;;;;;5.60;4.68;;;21.50;99.90;;;;;;5070038;28;20056;-72
2023/08/29 04:10:42;;;;;;;7.38;4.22;;;21.40;99.90;;;;;;5068732;28;20139;-72
2023/08/29 04:13:08;;;;;;;7.13;4.72;;;21.50;99.90;;;;;;5068002;28;20079;-72
2023/08/29 04:15:34;;;;;;;9.13;5.38;;;21.50;99.90;;;;;;5054305;28;20739;-71
2023/08/29 04:18:01;;;;;;;9.10;5.00;;;21.40;99.90;;;;;;5074564;28;20067;-71
2023/08/29 04:20:28;;;;;;;6.60;4.95;;;21.30;99.90;;;;;;5073069;28;20031;-72
2023/08/29 04:22:54;;;;;;;15.02;5.40;;;21.20;99.90;;;;;;5077475;28;20090;-73
2023/08/29 04:25:20;;;;;;;7.28;5.53;;;21.20;99.90;;;;;;5076493;28;20040;-72
2023/08/29 04:27:47;;;;;;;13.15;4.72;;;21.30;99.90;;;;;;5073497;28;20044;-72
2023/08/29 04:30:13;;;;;;;7.35;5.03;;;21.30;99.90;;;;;;5070663;28;20097;-72
2023/08/29 04:32:39;;;;;;;6.60;4.95;;;21.40;99.90;;;;;;5072557;28;20739;-72
2023/08/29 04:35:10;;;;;;;19.13;5.13;;;21.30;99.90;;;;;;5074631;28;20051;-72
2023/08/29 04:37:36;;;;;;;13.35;5.53;;;21.30;99.90;;;;;;5076870;28;20777;-71
2023/08/29 04:40:06;;;;;;;7.40;5.10;;;21.30;99.90;;;;;;5072871;28;20043;-73
2023/08/29 04:42:37;;;;;;;6.45;4.47;;;21.30;99.90;;;;;;5065380;28;20036;-73
2023/08/29 04:45:06;;;;;;;6.68;4.82;;;21.30;99.90;;;;;;5076693;28;20123;-72
2023/08/29 04:47:32;;;;;;;5.82;4.97;;;21.40;99.90;;;;;;5074108;28;20109;-71
2023/08/29 04:49:59;;;;;;;5.32;4.80;;;21.50;99.90;;;;;;5068256;28;24351;-73
2023/08/29 04:52:26;;;;;;;5.53;5.03;;;21.60;99.90;;;;;;5056218;28;20056;-73
2023/08/29 04:54:52;;;;;;;5.78;4.47;;;21.70;99.90;;;;;;5072281;28;20714;-73
2023/08/29 04:57:17;;;;;;;7.68;5.45;;;21.80;99.90;;;;;;5060248;28;20190;-74
2023/08/29 04:59:43;;;;;;;8.23;4.72;;;21.90;99.90;;;;;;5072965;28;20040;-75
2023/08/29 05:02:08;;;;;;;11.13;4.68;;;22.00;99.90;;;;;;5071936;28;20044;-73
2023/08/29 05:04:34;;;;;;;5.30;4.50;;;22.10;99.90;;;;;;5071258;28;20031;-74
2023/08/29 05:07:00;;;;;;;11.15;5.32;;;22.10;99.90;;;;;;5069313;28;20091;-74
2023/08/29 05:09:25;;;;;;;12.93;4.78;;;22.20;99.90;;;;;;5070726;28;20143;-74
2023/08/29 05:11:51;;;;;;;7.40;5.22;;;22.30;99.90;;;;;;5075516;28;20120;-75
2023/08/29 05:14:16;;;;;;;7.25;4.45;;;22.30;99.90;;;;;;5069063;28;20113;-76
2023/08/29 05:16:42;;;;;;;17.23;5.60;;;22.40;99.90;;;;;;5068924;28;20052;-75
2023/08/29 05:19:08;;;;;;;17.02;5.03;;;22.40;99.90;;;;;;5051848;28;20823;-74
2023/08/29 05:21:34;;;;;;;7.13;5.25;;;22.40;99.90;;;;;;5074997;28;20115;-75
2023/08/29 05:24:01;;;;;;;7.20;5.07;;;22.40;99.90;;;;;;5066018;28;20513;-75
2023/08/29 05:26:26;;;;;;;11.60;5.15;;;22.40;99.90;;;;;;5071483;28;20036;-79
2023/08/29 05:28:52;;;;;;;12.20;5.07;;;22.40;99.90;;;;;;5068783;28;20047;-78
2023/08/29 05:31:18;;;;;;;7.15;5.05;;;22.50;99.90;;;;;;5055743;28;20045;-78
2023/08/29 05:33:43;;;;;;;11.38;5.03;;;22.70;99.90;;;;;;5066751;28;20135;-79
2023/08/29 05:36:09;;;;;;;7.25;4.28;;;22.70;99.90;;;;;;5070027;28;21154;-80
2023/08/29 05:38:35;;;;;;;9.77;4.38;;;22.90;99.90;;;;;;5071670;28;20035;-79
2023/08/29 05:41:02;;;;;;;6.70;4.40;;;23.00;99.90;;;;;;5062561;28;20043;-77
2023/08/29 05:43:27;;;;;;;4.82;4.00;;;23.20;99.90;;;;;;5073185;28;20119;-79
2023/08/29 05:45:54;;;;;;;5.63;4.53;;;23.30;99.90;;;;;;5066446;28;20496;-77
2023/08/29 05:48:20;;;;;;;15.35;5.45;;;23.40;99.90;;;;;;5071799;28;20054;-80
2023/08/29 05:50:49;;;;;;;17.40;4.97;;;23.40;99.90;;;;;;5063088;28;20102;-72
2023/08/29 05:53:15;;;;;;;8.02;4.53;;;23.50;99.90;;;;;;5063404;28;20052;-73
2023/08/29 05:55:41;;;;;;;9.20;4.75;;;23.50;99.90;;;;;;5069047;28;20050;-73
2023/08/29 05:58:06;;;;;;;14.30;4.30;;;23.60;99.90;;;;;;5054116;28;20032;-73
2023/08/29 06:00:32;;;;;;;20.00;4.90;;;23.60;99.90;;;;;;5072268;28;20063;-73
2023/08/29 06:02:58;;;;;;;13.82;4.22;;;23.60;99.90;;;;;;5065248;28;20447;-74
2023/08/29 06:05:26;;;;;;;11.60;4.50;;;23.70;99.90;;;;;;5067251;28;20032;-73
2023/08/29 06:07:52;;;;;;;8.75;4.47;;;23.70;99.90;;;;;;5042562;28;20036;-73
2023/08/29 06:10:17;;;;;;;5.72;4.20;;;23.80;99.90;;;;;;5067022;28;20051;-73
2023/08/29 06:12:43;;;;;;;5.03;4.30;;;23.80;99.90;;;;;;5074095;28;20056;-73
2023/08/29 06:15:09;;;;;;;8.90;4.40;;;23.80;99.90;;;;;;5078487;28;20538;-73
2023/08/29 06:17:34;;;;;;;8.05;4.20;;;23.90;99.90;;;;;;5059481;28;20492;-73
2023/08/29 06:20:00;;;;;;;18.83;4.78;;;23.90;99.90;;;;;;5069121;28;20032;-74
2023/08/29 06:22:26;;;;;;;12.73;5.00;;;23.90;99.90;;;;;;5075618;28;20048;-73
2023/08/29 06:24:51;;;;;;;5.30;4.00;;;23.90;99.90;;;;;;5073564;28;20049;-74
2023/08/29 06:27:17;;;;;;;7.47;4.45;;;23.90;99.90;;;;;;5070337;28;20589;-73
2023/08/29 06:29:43;;;;;;;5.47;4.05;;;24.00;99.90;;;;;;5056841;28;20036;-73
2023/08/29 06:32:08;;;;;;;4.68;4.25;;;24.00;99.90;;;;;;5062165;28;20032;-73
2023/08/29 06:34:34;;;;;;;5.95;4.25;;;24.10;99.90;;;;;;5047187;28;20044;-73
2023/08/29 06:37:00;;;;;;;8.80;4.53;;;24.20;99.90;;;;;;5066901;28;20532;-72
2023/08/29 06:39:25;;;;;;;7.78;4.78;;;24.30;99.90;;;;;;5065898;28;20039;-74
2023/08/29 06:41:51;;;;;;;6.22;4.32;;;24.30;99.90;;;;;;5066400;28;20425;-74
2023/08/29 06:44:16;;;;;;;5.50;4.55;;;24.40;99.90;;;;;;5073344;28;20493;-73
2023/08/29 06:46:42;;;;;;;6.70;4.82;;;24.50;99.90;;;;;;5067827;28;20147;-73
2023/08/29 06:49:08;;;;;;;6.47;4.25;;;24.50;99.90;;;;;;5038123;28;23849;-74
2023/08/29 06:51:34;;;;;;;6.20;4.90;;;24.60;99.90;;;;;;5062730;28;20692;-73
2023/08/29 06:54:00;;;;;;;9.18;4.85;;;24.60;99.90;;;;;;5045929;28;20058;-78
2023/08/29 06:56:25;;;;;;;5.20;4.50;;;24.70;99.90;;;;;;5054901;28;20063;-78
2023/08/29 06:58:51;;;;;;;5.32;4.75;;;24.70;99.90;;;;;;5073753;28;20600;-77
2023/08/29 07:01:17;;;;;;;5.20;4.30;;;24.70;99.90;;;;;;5071251;28;20036;-78
2023/08/29 07:03:42;;;;;;;5.43;4.63;;;24.70;99.90;;;;;;5070086;28;20039;-78
2023/08/29 07:06:08;;;;;;;8.13;4.60;;;24.70;99.90;;;;;;5071831;28;20473;-77
2023/08/29 07:08:34;;;;;;;5.88;4.78;;;24.60;99.90;;;;;;5072491;28;20067;-78
2023/08/29 07:10:59;;;;;;;6.40;5.45;;;24.70;99.90;;;;;;5075883;28;20060;-73
2023/08/29 07:13:25;;;;;;;8.20;4.95;;;24.70;99.90;;;;;;5079641;28;20652;-73
2023/08/29 07:15:51;;;;;;;9.10;4.90;;;24.70;99.90;;;;;;5075955;28;20605;-73
2023/08/29 07:18:16;;;;;;;12.57;4.82;;;24.60;99.90;;;;;;5073484;28;20062;-73
2023/08/29 07:20:47;;;;;;;8.07;5.32;;;24.60;99.90;;;;;;5072708;28;20043;-74
2023/08/29 07:23:13;;;;;;;6.10;4.93;;;24.50;99.90;;;;;;5049758;28;20040;-73
2023/08/29 07:25:42;;;;;;;20.55;5.07;;;24.40;99.90;;;;;;5071997;28;20067;-73
2023/08/29 07:28:09;;;;;;;17.98;5.82;;;24.40;99.90;;;;;;5069601;28;20140;-74
2023/08/29 07:30:41;;;;;;;9.25;4.70;;;24.30;99.90;;;;;;5052636;28;20043;-75
2023/08/29 07:33:07;;;;;;;12.32;4.93;;;24.30;99.90;;;;;;5066426;28;20040;-74
2023/08/29 07:37:54;;;;;;;8.68;4.78;;;24.20;99.90;;;;;;4673221;27;8350579;-73
2023/08/29 07:40:20;;;;;;;8.05;4.57;;;24.10;99.90;;;;;;4970667;28;20102;-73
2023/08/29 07:42:45;;;;;;;6.45;4.55;;;24.10;99.90;;;;;;4980269;28;20157;-73
2023/08/29 07:45:11;;;;;;;7.93;4.85;;;23.90;99.90;;;;;;4979496;28;20158;-74
2023/08/29 07:47:36;;;;;;;9.43;4.32;;;23.80;99.90;;;;;;4983082;28;20492;-73
2023/08/29 07:50:02;;;;;;;8.00;3.88;;;23.50;99.90;;;;;;4978646;28;20420;-74
2023/08/29 07:52:28;;;;;;;11.90;4.15;;;23.30;99.90;;;;;;4984666;28;20050;-74
2023/08/29 07:54:53;;;;;;;15.15;4.47;;;23.00;99.90;;;;;;4979558;28;20029;-75
2023/08/29 07:57:19;;;;;;;5.55;4.32;;;22.70;99.90;;;;;;4986583;28;20037;-75
2023/08/29 07:59:45;;;;;;;19.02;5.30;;;22.70;99.90;;;;;;4982448;28;20030;-74
2023/08/29 08:02:10;;;;;;;7.30;4.30;;;22.70;99.90;;;;;;4982318;28;20467;-76
2023/08/29 08:04:36;;;;;;;12.02;4.95;;;22.70;99.90;;;;;;4978573;28;20049;-76
2023/08/29 08:07:02;;;;;;;11.50;4.80;;;22.60;99.90;;;;;;4978991;28;20098;-75
2023/08/29 08:09:28;;;;;;;5.72;4.10;;;22.60;99.90;;;;;;4984604;28;20026;-74
2023/08/29 08:11:54;;;;;;;13.77;4.95;;;22.60;99.90;;;;;;4980958;28;20018;-76
2023/08/29 08:14:19;;;;;;;15.18;5.18;;;22.40;99.90;;;;;;4984693;28;20050;-75
2023/08/29 08:16:45;;;;;;;6.78;4.43;;;22.40;99.90;;;;;;4986539;28;20044;-75
2023/08/29 08:19:11;;;;;;;7.10;4.80;;;22.40;99.90;;;;;;4984722;28;20342;-75
2023/08/29 08:21:36;;;;;;;8.55;4.85;;;22.40;99.90;;;;;;4986217;28;20117;-76
2023/08/29 08:24:03;;;;;;;4.90;4.10;;;22.30;99.90;;;;;;4980017;28;20034;-76
2023/08/29 08:26:28;;;;;;;9.68;4.78;;;22.30;99.90;;;;;;4982852;28;20121;-76
2023/08/29 08:28:54;;;;;;;9.02;4.70;;;22.20;99.90;;;;;;4988623;28;20134;-75
2023/08/29 08:31:20;;;;;;;10.57;5.28;;;22.20;99.90;;;;;;4983639;28;20031;-75
2023/08/29 08:33:46;;;;;;;10.40;5.32;;;22.10;99.90;;;;;;4976520;28;20088;-75
2023/08/29 08:36:12;;;;;;;9.40;5.75;;;22.10;99.90;;;;;;4977737;28;20057;-76
2023/08/29 08:38:37;;;;;;;10.15;5.70;;;22.00;99.90;;;;;;4987884;28;20027;-74
2023/08/29 08:41:04;;;;;;;9.65;5.22;;;21.90;99.90;;;;;;4980498;28;20399;-75
2023/08/29 08:43:31;;;;;;;7.80;4.95;;;22.00;99.90;;;;;;4994140;28;20026;-75
2023/08/29 08:45:58;;;;;;;9.93;5.45;;;22.00;99.90;;;;;;4982642;28;20034;-75
2023/08/29 08:48:24;;;;;;;6.78;4.95;;;22.10;99.90;;;;;;4973466;28;20027;-75
2023/08/29 08:50:50;;;;;;;7.95;5.18;;;22.00;99.90;;;;;;4978605;28;20034;-75
2023/08/29 08:53:19;;;;;;;12.35;4.70;;;22.00;99.90;;;;;;4979547;28;20045;-75
2023/08/29 08:55:45;;;;;;;6.80;4.45;;;22.00;99.90;;;;;;4977717;28;20088;-74
2023/08/29 08:58:11;;;;;;;7.70;4.55;;;22.00;99.90;;;;;;4971999;28;20562;-76
2023/08/29 09:00:36;;;;;;;9.10;5.07;;;22.00;99.90;;;;;;4973646;28;20035;-76
2023/08/29 09:03:02;;;;;;;11.00;5.07;;;22.00;99.90;;;;;;4972136;28;20035;-76
2023/08/29 09:05:28;;;;;;;8.88;4.60;;;22.00;99.90;;;;;;4972605;28;20780;-76
2023/08/29 09:07:53;;;;;;;6.80;5.00;;;22.00;99.90;;;;;;4971485;28;20443;-75
2023/08/29 09:10:19;;;;;;;8.35;4.47;;;22.00;99.90;;;;;;4975474;28;20022;-76
2023/08/29 09:12:50;;;;;;;8.05;4.75;;;22.10;99.90;;;;;;4976358;28;20050;-76
2023/08/29 09:15:19;;;;;;;12.88;5.32;;;22.00;99.90;;;;;;4973946;28;20030;-76
2023/08/29 09:17:49;;;;;;;13.45;5.72;;;21.90;99.90;;;;;;4973564;28;20121;-76
2023/08/29 09:20:16;;;;;;;9.10;5.35;;;22.00;99.90;;;;;;4974587;28;20097;-75
2023/08/29 09:22:43;;;;;;;7.28;5.38;;;21.90;99.90;;;;;;4970484;28;20030;-75
2023/08/29 09:25:10;;;;;;;13.45;5.80;;;21.90;99.90;;;;;;4974320;28;20034;-75
2023/08/29 09:27:47;;;;;;;13.90;5.45;;;21.90;99.90;;;;;;4968783;28;20061;-74
2023/08/29 09:30:17;;;;;;;8.15;4.88;;;21.80;99.90;;;;;;4974125;28;20131;-75
2023/08/29 09:32:52;;;;;;;25.75;9.30;;;21.70;99.90;;;;;;4976920;28;20787;-75
2023/08/29 09:35:20;;;;;;;6.90;4.72;;;21.60;99.90;;;;;;4981277;28;20035;-75
2023/08/29 09:37:54;;;;;;;12.70;5.32;;;21.60;99.90;;;;;;4986411;28;20058;-74
2023/08/29 09:40:23;;;;;;;5.97;4.57;;;21.50;99.90;;;;;;4977028;28;20110;-75
2023/08/29 09:42:55;;;;;;;8.30;4.47;;;21.40;99.90;;;;;;4977762;28;21313;-75
2023/08/29 09:45:22;;;;;;;7.93;4.95;;;21.40;99.90;;;;;;4975495;28;20372;-75
2023/08/29 09:47:52;;;;;;;5.65;3.78;;;21.50;99.90;;;;;;4971843;28;20046;-75
2023/08/29 09:50:20;;;;;;;6.30;3.92;;;21.50;99.90;;;;;;4975593;28;20494;-75
2023/08/29 09:52:46;;;;;;;7.85;4.40;;;21.40;99.90;;;;;;4974266;28;20322;-75
2023/08/29 09:55:13;;;;;;;7.80;4.65;;;21.50;99.90;;;;;;4970869;28;20038;-75
2023/08/29 09:57:39;;;;;;;7.95;4.20;;;21.50;99.90;;;;;;4971566;28;20038;-73
2023/08/29 10:00:09;;;;;;;7.30;4.38;;;21.60;99.90;;;;;;4974781;28;20438;-76
2023/08/29 10:02:36;;;;;;;8.75;3.90;;;21.50;99.90;;;;;;4976689;28;20038;-75
2023/08/29 10:05:08;;;;;;;7.72;4.70;;;21.50;99.90;;;;;;4972027;28;20031;-75
2023/08/29 10:07:46;;;;;;;6.13;4.40;;;21.50;99.90;;;;;;4969627;28;20425;-74
2023/08/29 10:10:11;;;;;;;10.45;4.03;;;21.40;99.90;;;;;;4953570;28;20031;-75
2023/08/29 10:12:40;;;;;;;10.57;4.03;;;21.40;99.90;;;;;;4966951;28;20034;-74
2023/08/29 10:15:08;;;;;;;7.70;4.28;;;21.40;99.90;;;;;;4967921;28;20610;-74
2023/08/29 10:17:35;;;;;;;12.13;4.90;;;21.30;99.90;;;;;;4969620;28;21151;-73
2023/08/29 10:20:09;;;;;;;8.80;4.13;;;21.30;99.90;;;;;;4970293;28;20032;-74
2023/08/29 10:22:38;;;;;;;8.60;4.38;;;21.30;99.90;;;;;;4968131;28;20037;-74
2023/08/29 10:25:04;;;;;;;8.70;4.38;;;21.30;99.90;;;;;;4969175;28;20045;-73
2023/08/29 10:27:34;;;;;;;9.75;4.70;;;21.30;99.90;;;;;;4973125;28;20050;-73
2023/08/29 10:30:05;;;;;;;8.55;4.55;;;21.40;99.90;;;;;;4970714;28;20082;-73
2023/08/29 10:32:32;;;;;;;8.65;5.00;;;21.40;99.90;;;;;;4975599;28;20030;-74
2023/08/29 10:34:59;;;;;;;7.72;4.38;;;21.40;99.90;;;;;;4970926;28;21512;-73
2023/08/29 10:37:27;;;;;;;12.68;4.78;;;21.40;99.90;;;;;;4968035;28;20153;-74
2023/08/29 10:39:53;;;;;;;6.72;4.57;;;21.40;99.90;;;;;;4971099;28;20035;-74
2023/08/29 10:42:19;;;;;;;9.10;5.00;;;21.40;99.90;;;;;;4971637;28;20045;-74
2023/08/29 10:44:46;;;;;;;7.28;4.40;;;21.40;99.90;;;;;;4966959;28;20038;-73
2023/08/29 10:47:30;;;;;;;9.43;5.00;;;21.40;99.90;;;;;;4970870;28;20042;-74
2023/08/29 10:50:03;;;;;;;6.05;4.25;;;21.40;99.90;;;;;;4971435;28;20365;-74
2023/08/29 10:52:40;;;;;;;6.82;4.43;;;21.40;99.90;;;;;;4971864;28;20064;-75
2023/08/29 10:55:20;;;;;;;9.40;4.70;;;21.20;99.90;;;;;;4976774;28;20065;-75
2023/08/29 10:57:46;;;;;;;4.70;4.20;;;21.20;99.90;;;;;;4971943;28;20038;-75
2023/08/29 11:00:17;;;;;;;8.80;4.90;;;21.30;99.90;;;;;;4975805;28;20522;-76
2023/08/29 11:02:44;;;;;;;4.75;4.15;;;21.40;99.90;;;;;;4974184;28;20039;-75
2023/08/29 11:05:11;;;;;;;7.38;4.22;;;21.40;99.90;;;;;;4972715;28;20058;-75
2023/08/29 11:07:38;;;;;;;6.22;4.28;;;21.40;99.90;;;;;;4973546;28;20061;-75
2023/08/29 11:10:21;;;;;;;5.00;4.18;;;21.40;99.90;;;;;;4976345;28;20081;-74
2023/08/29 11:13:07;;;;;;;7.03;4.45;;;21.50;99.90;;;;;;4974526;28;20030;-74
2023/08/29 11:15:48;;;;;;;6.75;4.53;;;21.50;99.90;;;;;;4971663;28;20060;-74
2023/08/29 11:18:34;;;;;;;9.43;3.92;;;21.40;99.90;;;;;;4973015;28;20034;-74
2023/08/29 11:21:10;;;;;;;8.02;4.32;;;21.40;99.90;;;;;;4971447;28;20030;-73
2023/08/29 11:23:41;;;;;;;7.45;3.65;;;21.40;99.90;;;;;;4976785;28;20038;-71
2023/08/29 11:26:10;;;;;;;5.28;3.17;;;21.40;99.90;;;;;;4971898;28;20034;-74
2023/08/29 11:28:45;;;;;;;6.10;3.03;;;21.30;99.90;;;;;;4975765;28;20035;-75
2023/08/29 11:31:12;;;;;;;10.20;3.60;;;21.20;99.90;;;;;;4974476;28;20027;-75
2023/08/29 11:33:38;;;;;;;6.05;3.60;;;21.30;99.90;;;;;;4962574;28;20473;-75
2023/08/29 11:36:07;;;;;;;6.65;3.83;;;21.50;99.90;;;;;;4976726;28;20971;-74
2023/08/29 11:38:33;;;;;;;5.22;3.08;;;21.60;99.90;;;;;;4977380;28;20041;-75
2023/08/29 11:41:06;;;;;;;8.38;3.58;;;21.80;99.90;;;;;;4975162;28;20035;-75
2023/08/29 11:43:33;;;;;;;4.55;3.50;;;22.10;99.90;;;;;;4978116;28;20026;-75
2023/08/29 11:46:01;;;;;;;5.45;3.50;;;22.30;99.90;;;;;;4973638;28;20047;-75
2023/08/29 11:48:30;;;;;;;4.47;3.80;;;22.40;99.90;;;;;;4968016;28;20061;-76
2023/08/29 11:50:59;;;;;;;5.32;3.53;;;22.60;99.90;;;;;;4970458;28;20581;-76
2023/08/29 11:53:31;;;;;;;6.07;3.65;;;22.70;99.90;;;;;;4966219;28;20141;-75
2023/08/29 11:55:57;;;;;;;6.05;3.88;;;22.80;99.90;;;;;;4973378;28;20678;-74
2023/08/29 11:58:36;;;;;;;5.90;3.63;;;22.90;99.90;;;;;;4974393;28;20027;-75
2023/08/29 12:01:07;;;;;;;4.13;3.17;;;22.80;99.90;;;;;;4966975;28;20027;-75
2023/08/29 12:03:38;;;;;;;5.38;3.25;;;22.80;99.90;;;;;;4965249;28;20041;-75
2023/08/29 12:06:10;;;;;;;7.50;3.20;;;22.90;99.90;;;;;;4965811;28;20050;-72
2023/08/29 12:08:42;;;;;;;3.05;2.35;;;23.10;99.90;;;;;;4965954;28;20035;-73
2023/08/29 12:11:13;;;;;;;4.53;2.88;;;23.10;99.90;;;;;;4965270;28;20090;-73
2023/08/29 12:13:42;;;;;;;3.60;2.70;;;23.10;99.90;;;;;;4964239;28;20030;-73
2023/08/29 12:16:16;;;;;;;3.55;3.05;;;23.10;99.90;;;;;;4964365;28;20808;-72
2023/08/29 12:18:42;;;;;;;4.75;3.13;;;23.10;99.90;;;;;;4964294;28;20117;-73
2023/08/29 12:21:16;;;;;;;5.72;3.47;;;23.10;99.90;;;;;;4967510;28;20031;-73
2023/08/29 12:23:45;;;;;;;3.67;3.08;;;23.10;99.90;;;;;;4969647;28;20026;-73
2023/08/29 12:26:12;;;;;;;4.60;3.63;;;23.10;99.90;;;;;;4970757;28;20030;-73
2023/08/29 12:28:38;;;;;;;4.57;3.97;;;23.10;99.90;;;;;;4976236;28;20658;-73
2023/08/29 12:31:04;;;;;;;6.95;3.75;;;23.10;99.90;;;;;;4975724;28;20031;-74
2023/08/29 12:33:30;;;;;;;3.95;3.50;;;23.10;99.90;;;;;;4977870;28;20452;-73
2023/08/29 12:35:56;;;;;;;3.63;3.28;;;23.20;99.90;;;;;;4974281;28;20045;-73
2023/08/29 12:38:23;;;;;;;5.72;3.83;;;23.30;99.90;;;;;;4975951;28;20503;-73
2023/08/29 12:40:49;;;;;;;12.73;5.25;;;23.30;99.90;;;;;;4981611;28;20034;-74
2023/08/29 12:43:16;;;;;;;4.63;3.50;;;23.20;99.90;;;;;;4976980;28;20026;-73
2023/08/29 12:45:43;;;;;;;4.85;4.18;;;23.30;99.90;;;;;;4975143;28;20032;-73
2023/08/29 12:48:09;;;;;;;5.60;4.07;;;23.40;99.90;;;;;;4976207;28;20033;-73